Time,TemperatureF,DewpointF,PressureIn,WindDirection,WindDirectionDegrees,WindSpeedMPH,WindSpeedGustMPH,Humidity,HourlyPrecipIn,Conditions,Clouds,dailyrainin,SoftwareType,DateUTC
2013-02-10 00:02:00,36.7,32.3,29.91,SE,145,7.0,12.0,84,0.00,,,0.00,Wunderground v.1.15,2013-02-10 06:02:00,
2013-02-10 00:08:00,36.7,32.3,29.90,SSE,161,9.0,18.0,84,0.00,,,0.00,Wunderground v.1.15,2013-02-10 06:08:00,
2013-02-10 00:14:00,36.7,32.3,29.90,SE,143,8.0,9.0,84,0.00,,,0.00,Wunderground v.1.15,2013-02-10 06:14:00,
2013-02-10 00:20:00,36.8,32.4,29.90,SSE,155,9.0,9.0,84,0.00,,,0.00,Wunderground v.1.15,2013-02-10 06:20:00,
2013-02-10 00:26:00,36.8,32.4,29.91,SSE,168,10.0,11.0,84,0.00,,,0.00,Wunderground v.1.15,2013-02-10 06:26:00,
2013-02-10 00:32:00,36.9,32.5,29.90,SE,134,9.0,10.0,84,0.00,,,0.00,Wunderground v.1.15,2013-02-10 06:32:00,
2013-02-10 00:38:00,36.9,32.5,29.90,SSE,163,8.0,11.0,84,0.00,,,0.00,Wunderground v.1.15,2013-02-10 06:38:00,
2013-02-10 00:44:00,37.0,32.6,29.89,SSE,156,7.0,8.0,84,0.00,,,0.00,Wunderground v.1.15,2013-02-10 06:44:00,
2013-02-10 00:50:00,37.0,32.6,29.91,SSE,148,6.0,10.0,84,0.00,,,0.00,Wunderground v.1.15,2013-02-10 06:50:00,
2013-02-10 00:56:00,37.1,33.0,29.90,SSE,160,8.0,10.0,85,0.00,,,0.00,Wunderground v.1.15,2013-02-10 06:56:00,
2013-02-10 01:02:00,37.2,33.1,29.89,SSE,162,8.0,10.0,85,0.00,,,0.00,Wunderground v.1.15,2013-02-10 07:02:00,
2013-02-10 01:08:00,37.3,33.2,29.89,South,178,8.0,16.0,85,0.00,,,0.00,Wunderground v.1.15,2013-02-10 07:08:00,
2013-02-10 01:14:00,37.4,33.3,29.89,SSE,157,9.0,10.0,85,0.00,,,0.00,Wunderground v.1.15,2013-02-10 07:14:00,
2013-02-10 01:20:00,37.3,33.2,29.89,SSE,148,7.0,7.0,85,0.00,,,0.01,Wunderground v.1.15,2013-02-10 07:20:00,
2013-02-10 01:26:00,37.3,33.2,29.89,South,175,8.0,13.0,85,0.00,,,0.01,Wunderground v.1.15,2013-02-10 07:26:00,
2013-02-10 01:32:00,37.3,33.2,29.88,SSE,165,8.0,13.0,85,0.04,,,0.02,Wunderground v.1.15,2013-02-10 07:32:00,
2013-02-10 01:38:00,37.3,33.2,29.88,SSE,156,7.0,13.0,85,0.08,,,0.03,Wunderground v.1.15,2013-02-10 07:38:00,
2013-02-10 01:44:00,37.3,33.2,29.87,SSE,150,6.0,7.0,85,0.13,,,0.04,Wunderground v.1.15,2013-02-10 07:44:00,
2013-02-10 01:50:00,37.3,33.2,29.86,South,182,8.0,11.0,85,0.07,,,0.04,Wunderground v.1.15,2013-02-10 07:50:00,
2013-02-10 01:56:00,37.3,33.2,29.86,SSE,150,8.0,15.0,85,0.33,,,0.06,Wunderground v.1.15,2013-02-10 07:56:00,
2013-02-10 02:02:00,37.3,33.2,29.85,SE,146,5.0,15.0,85,0.09,,,0.06,Wunderground v.1.15,2013-02-10 08:02:00,
2013-02-10 02:08:00,37.3,33.2,29.85,SE,134,5.0,15.0,85,0.19,,,0.08,Wunderground v.1.15,2013-02-10 08:08:00,
2013-02-10 02:14:00,37.4,33.6,29.84,SSE,153,6.0,15.0,86,0.09,,,0.09,Wunderground v.1.15,2013-02-10 08:14:00,
2013-02-10 02:20:00,37.4,33.6,29.84,SSE,155,5.0,5.0,86,0.09,,,0.09,Wunderground v.1.15,2013-02-10 08:20:00,
2013-02-10 02:26:00,37.5,33.7,29.84,SSE,152,4.0,15.0,86,0.06,,,0.10,Wunderground v.1.15,2013-02-10 08:26:00,
2013-02-10 02:32:00,37.6,33.8,29.84,SSE,150,4.0,15.0,86,0.06,,,0.10,Wunderground v.1.15,2013-02-10 08:32:00,
2013-02-10 02:38:00,37.7,33.9,29.84,SSE,156,5.0,15.0,86,0.05,,,0.11,Wunderground v.1.15,2013-02-10 08:38:00,
2013-02-10 02:44:00,37.8,34.0,29.84,SE,146,5.0,15.0,86,0.05,,,0.11,Wunderground v.1.15,2013-02-10 08:44:00,
2013-02-10 02:50:00,37.9,34.1,29.83,SSE,157,5.0,15.0,86,0.05,,,0.11,Wunderground v.1.15,2013-02-10 08:50:00,
2013-02-10 02:56:00,37.9,34.1,29.83,SSE,156,5.0,15.0,86,0.00,,,0.11,Wunderground v.1.15,2013-02-10 08:56:00,
2013-02-10 03:02:00,38.0,34.2,29.82,SSE,152,5.0,15.0,86,1.03,,,0.13,Wunderground v.1.15,2013-02-10 09:02:00,
2013-02-10 03:08:00,38.0,34.2,29.81,SE,146,5.0,15.0,86,0.62,,,0.17,Wunderground v.1.15,2013-02-10 09:08:00,
2013-02-10 03:14:00,38.1,34.3,29.82,SSE,163,5.0,15.0,86,0.11,,,0.18,Wunderground v.1.15,2013-02-10 09:14:00,
2013-02-10 03:20:00,38.2,34.4,29.81,SE,145,4.0,15.0,86,0.08,,,0.18,Wunderground v.1.15,2013-02-10 09:20:00,
2013-02-10 03:26:00,38.2,34.4,29.81,SSE,148,5.0,15.0,86,0.05,,,0.18,Wunderground v.1.15,2013-02-10 09:26:00,
2013-02-10 03:32:00,38.3,34.8,29.80,SSE,149,5.0,15.0,87,0.00,,,0.18,Wunderground v.1.15,2013-02-10 09:32:00,
2013-02-10 03:38:00,38.4,34.9,29.80,SSE,155,5.0,15.0,87,0.00,,,0.18,Wunderground v.1.15,2013-02-10 09:38:00,
2013-02-10 03:44:00,38.4,34.9,29.79,SE,140,5.0,15.0,87,0.00,,,0.18,Wunderground v.1.15,2013-02-10 09:44:00,
2013-02-10 03:50:00,38.5,35.0,29.78,SSE,161,5.0,5.0,87,0.00,,,0.18,Wunderground v.1.15,2013-02-10 09:50:00,
2013-02-10 03:56:00,38.6,35.1,29.77,SSE,158,5.0,15.0,87,0.00,,,0.18,Wunderground v.1.15,2013-02-10 09:56:00,
2013-02-10 04:02:00,38.7,35.2,29.77,SSE,155,4.0,9.0,87,0.00,,,0.18,Wunderground v.1.15,2013-02-10 10:02:00,
2013-02-10 04:08:00,38.8,35.3,29.76,SSE,148,5.0,9.0,87,0.00,,,0.18,Wunderground v.1.15,2013-02-10 10:08:00,
2013-02-10 04:14:00,38.9,35.4,29.76,SE,146,6.0,7.0,87,0.00,,,0.18,Wunderground v.1.15,2013-02-10 10:14:00,
2013-02-10 04:20:00,39.0,35.5,29.75,SE,144,4.0,4.0,87,0.00,,,0.18,Wunderground v.1.15,2013-02-10 10:20:00,
2013-02-10 04:26:00,39.2,35.7,29.74,SSE,159,5.0,12.0,87,0.00,,,0.18,Wunderground v.1.15,2013-02-10 10:26:00,
2013-02-10 04:32:00,39.2,35.7,29.75,SSE,160,4.0,5.0,87,0.00,,,0.18,Wunderground v.1.15,2013-02-10 10:32:00,
2013-02-10 04:38:00,39.3,35.8,29.75,SSE,160,4.0,5.0,87,0.00,,,0.18,Wunderground v.1.15,2013-02-10 10:38:00,
2013-02-10 04:44:00,39.4,35.9,29.74,SSE,149,5.0,7.0,87,0.00,,,0.18,Wunderground v.1.15,2013-02-10 10:44:00,
2013-02-10 04:50:00,39.5,36.0,29.74,SSE,149,5.0,6.0,87,0.00,,,0.18,Wunderground v.1.15,2013-02-10 10:50:00,
2013-02-10 04:56:00,39.5,36.0,29.74,SSE,165,5.0,12.0,87,0.00,,,0.18,Wunderground v.1.15,2013-02-10 10:56:00,
2013-02-10 05:02:00,39.6,36.0,29.73,SSE,155,6.0,12.0,87,0.00,,,0.18,Wunderground v.1.15,2013-02-10 11:02:00,
2013-02-10 05:08:00,39.7,36.1,29.72,SSE,148,5.0,12.0,87,0.00,,,0.18,Wunderground v.1.15,2013-02-10 11:08:00,
2013-02-10 05:14:00,39.8,36.5,29.72,SSE,156,6.0,12.0,88,0.00,,,0.18,Wunderground v.1.15,2013-02-10 11:14:00,
2013-02-10 05:20:00,39.8,36.5,29.71,SE,130,5.0,5.0,88,0.00,,,0.18,Wunderground v.1.15,2013-02-10 11:20:00,
2013-02-10 05:26:00,40.0,36.7,29.70,SSE,155,5.0,12.0,88,0.00,,,0.18,Wunderground v.1.15,2013-02-10 11:26:00,
2013-02-10 05:32:00,40.1,36.8,29.70,SSE,155,6.0,12.0,88,0.00,,,0.18,Wunderground v.1.15,2013-02-10 11:32:00,
2013-02-10 05:38:00,40.2,36.9,29.69,SE,144,6.0,12.0,88,0.00,,,0.18,Wunderground v.1.15,2013-02-10 11:38:00,
2013-02-10 05:44:00,40.3,37.0,29.69,SSE,150,5.0,12.0,88,0.00,,,0.18,Wunderground v.1.15,2013-02-10 11:44:00,
2013-02-10 05:50:00,40.3,37.0,29.68,SE,141,5.0,12.0,88,0.00,,,0.18,Wunderground v.1.15,2013-02-10 11:50:00,
2013-02-10 05:56:00,40.4,37.1,29.68,SSE,152,4.0,16.0,88,0.00,,,0.18,Wunderground v.1.15,2013-02-10 11:56:00,
2013-02-10 06:02:00,40.6,37.3,29.69,SSE,165,8.0,15.0,88,0.00,,,0.18,Wunderground v.1.15,2013-02-10 12:02:00,
2013-02-10 06:08:00,40.7,37.4,29.68,SE,134,6.0,15.0,88,0.00,,,0.18,Wunderground v.1.15,2013-02-10 12:08:00,
2013-02-10 06:14:00,40.8,37.5,29.68,South,176,8.0,13.0,88,0.12,,,0.20,Wunderground v.1.15,2013-02-10 12:14:00,
2013-02-10 06:20:00,40.9,37.6,29.67,SSE,149,8.0,13.0,88,0.09,,,0.20,Wunderground v.1.15,2013-02-10 12:20:00,
2013-02-10 06:26:00,41.1,38.1,29.67,South,170,9.0,13.0,89,0.05,,,0.20,Wunderground v.1.15,2013-02-10 12:26:00,
2013-02-10 06:32:00,41.2,37.9,29.67,SE,146,9.0,12.0,88,0.00,,,0.20,Wunderground v.1.15,2013-02-10 12:32:00,
2013-02-10 06:38:00,41.3,38.3,29.67,SSE,156,9.0,12.0,89,0.00,,,0.20,Wunderground v.1.15,2013-02-10 12:38:00,
2013-02-10 06:44:00,41.6,38.6,29.66,South,171,9.0,13.0,89,0.00,,,0.20,Wunderground v.1.15,2013-02-10 12:44:00,
2013-02-10 06:50:00,41.8,38.8,29.66,SSE,160,9.0,9.0,89,0.00,,,0.20,Wunderground v.1.15,2013-02-10 12:50:00,
2013-02-10 06:56:00,42.0,39.0,29.66,SSE,149,9.0,17.0,89,0.00,,,0.20,Wunderground v.1.15,2013-02-10 12:56:00,
2013-02-10 07:02:00,42.2,39.2,29.66,South,176,9.0,13.0,89,0.23,,,0.22,Wunderground v.1.15,2013-02-10 13:02:00,
2013-02-10 07:08:00,42.4,39.4,29.66,SE,144,10.0,13.0,89,0.07,,,0.22,Wunderground v.1.15,2013-02-10 13:08:00,
2013-02-10 07:14:00,42.5,39.5,29.66,SSE,158,10.0,13.0,89,0.04,,,0.22,Wunderground v.1.15,2013-02-10 13:14:00,
2013-02-10 07:20:00,42.7,39.7,29.65,SSE,166,10.0,12.0,89,0.00,,,0.22,Wunderground v.1.15,2013-02-10 13:20:00,
2013-02-10 07:26:00,42.7,39.7,29.64,South,188,10.0,14.0,89,0.00,,,0.23,Wunderground v.1.15,2013-02-10 13:26:00,
2013-02-10 07:32:00,42.8,39.8,29.64,SSE,149,9.0,12.0,89,0.09,,,0.24,Wunderground v.1.15,2013-02-10 13:32:00,
2013-02-10 07:38:00,42.9,39.9,29.63,SSE,156,8.0,12.0,89,0.07,,,0.24,Wunderground v.1.15,2013-02-10 13:38:00,
2013-02-10 07:44:00,43.1,40.1,29.63,SSE,151,8.0,12.0,89,0.04,,,0.24,Wunderground v.1.15,2013-02-10 13:44:00,
2013-02-10 07:50:00,43.3,40.3,29.61,SSE,150,7.0,7.0,89,0.00,,,0.24,Wunderground v.1.15,2013-02-10 13:50:00,
2013-02-10 07:56:00,43.6,40.9,29.62,South,171,7.0,12.0,90,0.00,,,0.24,Wunderground v.1.15,2013-02-10 13:56:00,
2013-02-10 08:02:00,44.1,41.4,29.62,South,171,8.0,10.0,90,0.00,,,0.24,Wunderground v.1.15,2013-02-10 14:02:00,
2013-02-10 08:08:00,44.7,41.9,29.61,SSE,158,10.0,19.0,90,0.00,,,0.25,Wunderground v.1.15,2013-02-10 14:08:00,
2013-02-10 08:14:00,45.5,42.7,29.60,SSE,166,11.0,21.0,90,0.06,,,0.26,Wunderground v.1.15,2013-02-10 14:14:00,
2013-02-10 08:20:00,45.8,43.0,29.60,South,169,10.0,10.0,90,0.06,,,0.26,Wunderground v.1.15,2013-02-10 14:20:00,
2013-02-10 08:26:00,46.0,43.2,29.60,SSE,148,9.0,12.0,90,0.05,,,0.26,Wunderground v.1.15,2013-02-10 14:26:00,
2013-02-10 08:32:00,46.1,43.3,29.60,SSE,161,10.0,10.0,90,0.17,,,0.28,Wunderground v.1.15,2013-02-10 14:32:00,
2013-02-10 08:38:00,46.3,43.5,29.60,South,175,9.0,14.0,90,0.08,,,0.28,Wunderground v.1.15,2013-02-10 14:38:00,
2013-02-10 08:44:00,46.4,43.6,29.59,SSE,155,10.0,13.0,90,0.06,,,0.29,Wunderground v.1.15,2013-02-10 14:44:00,
2013-02-10 08:50:00,46.6,43.8,29.59,SSE,159,10.0,16.0,90,0.08,,,0.30,Wunderground v.1.15,2013-02-10 14:50:00,
2013-02-10 08:56:00,47.0,44.2,29.58,South,186,11.0,16.0,90,0.07,,,0.30,Wunderground v.1.15,2013-02-10 14:56:00,
2013-02-10 09:02:00,47.3,44.5,29.58,SSE,166,11.0,12.0,90,0.04,,,0.30,Wunderground v.1.15,2013-02-10 15:02:00,
2013-02-10 09:08:00,47.4,44.6,29.57,SE,137,10.0,12.0,90,0.00,,,0.30,Wunderground v.1.15,2013-02-10 15:08:00,
2013-02-10 09:14:00,47.6,44.8,29.57,SSE,165,10.0,12.0,90,0.00,,,0.30,Wunderground v.1.15,2013-02-10 15:14:00,
2013-02-10 09:20:00,47.8,45.0,29.57,SSE,161,11.0,13.0,90,0.00,,,0.30,Wunderground v.1.15,2013-02-10 15:20:00,
2013-02-10 09:26:00,48.0,45.2,29.56,South,171,11.0,15.0,90,0.00,,,0.30,Wunderground v.1.15,2013-02-10 15:26:00,
2013-02-10 09:32:00,48.1,45.3,29.56,South,171,13.0,17.0,90,0.00,,,0.30,Wunderground v.1.15,2013-02-10 15:32:00,
2013-02-10 09:38:00,48.2,45.4,29.56,SSE,164,11.0,17.0,90,0.00,,,0.30,Wunderground v.1.15,2013-02-10 15:38:00,
2013-02-10 09:44:00,48.4,45.6,29.56,SSE,159,10.0,12.0,90,0.00,,,0.30,Wunderground v.1.15,2013-02-10 15:44:00,
2013-02-10 09:50:00,48.5,45.7,29.55,SSE,155,11.0,14.0,90,0.00,,,0.30,Wunderground v.1.15,2013-02-10 15:50:00,
2013-02-10 09:56:00,48.7,45.9,29.55,South,171,11.0,17.0,90,0.00,,,0.30,Wunderground v.1.15,2013-02-10 15:56:00,
2013-02-10 10:02:00,49.0,46.2,29.56,South,187,12.0,15.0,90,0.00,,,0.30,Wunderground v.1.15,2013-02-10 16:02:00,
2013-02-10 10:08:00,49.2,46.7,29.56,South,173,11.0,15.0,91,0.00,,,0.30,Wunderground v.1.15,2013-02-10 16:08:00,
2013-02-10 10:14:00,49.3,46.5,29.55,SSE,168,10.0,13.0,90,0.00,,,0.30,Wunderground v.1.15,2013-02-10 16:14:00,
2013-02-10 10:20:00,49.5,46.7,29.56,SSE,164,11.0,14.0,90,0.00,,,0.30,Wunderground v.1.15,2013-02-10 16:20:00,
2013-02-10 10:26:00,49.7,47.2,29.55,South,182,11.0,18.0,91,0.00,,,0.30,Wunderground v.1.15,2013-02-10 16:26:00,
2013-02-10 10:32:00,50.0,47.2,29.55,SSE,159,10.0,12.0,90,0.00,,,0.30,Wunderground v.1.15,2013-02-10 16:32:00,
2013-02-10 10:38:00,50.3,47.5,29.55,SSE,167,9.0,12.0,90,0.00,,,0.30,Wunderground v.1.15,2013-02-10 16:38:00,
2013-02-10 10:44:00,50.7,47.9,29.54,SSE,168,9.0,24.0,90,0.00,,,0.30,Wunderground v.1.15,2013-02-10 16:44:00,
2013-02-10 10:50:00,51.0,48.2,29.55,South,172,7.0,7.0,90,0.00,,,0.30,Wunderground v.1.15,2013-02-10 16:50:00,
2013-02-10 10:56:00,51.2,48.4,29.55,South,179,8.0,11.0,90,0.00,,,0.30,Wunderground v.1.15,2013-02-10 16:56:00,
2013-02-10 11:02:00,51.3,48.5,29.55,South,182,7.0,12.0,90,0.00,,,0.30,Wunderground v.1.15,2013-02-10 17:02:00,
2013-02-10 11:08:00,51.4,48.6,29.54,South,174,8.0,12.0,90,0.00,,,0.30,Wunderground v.1.15,2013-02-10 17:08:00,
2013-02-10 11:14:00,51.4,48.6,29.54,South,178,8.0,12.0,90,0.00,,,0.30,Wunderground v.1.15,2013-02-10 17:14:00,
2013-02-10 11:20:00,51.5,48.7,29.54,South,172,9.0,12.0,90,0.00,,,0.30,Wunderground v.1.15,2013-02-10 17:20:00,
2013-02-10 11:26:00,51.6,48.8,29.53,SSE,160,8.0,12.0,90,0.00,,,0.30,Wunderground v.1.15,2013-02-10 17:26:00,
2013-02-10 11:32:00,51.7,48.9,29.53,SSE,167,8.0,12.0,90,0.00,,,0.30,Wunderground v.1.15,2013-02-10 17:32:00,
2013-02-10 11:38:00,51.9,49.1,29.53,SSE,167,9.0,12.0,90,0.00,,,0.30,Wunderground v.1.15,2013-02-10 17:38:00,
2013-02-10 11:44:00,51.9,49.1,29.52,South,186,9.0,12.0,90,0.00,,,0.30,Wunderground v.1.15,2013-02-10 17:44:00,
2013-02-10 11:50:00,52.3,49.5,29.52,South,169,8.0,12.0,90,0.00,,,0.30,Wunderground v.1.15,2013-02-10 17:50:00,
2013-02-10 11:56:00,52.8,49.9,29.52,South,176,9.0,12.0,90,0.00,,,0.30,Wunderground v.1.15,2013-02-10 17:56:00,
2013-02-10 12:02:00,53.4,50.5,29.51,South,182,10.0,10.0,90,0.00,,,0.30,Wunderground v.1.15,2013-02-10 18:02:00,
2013-02-10 12:08:00,53.8,50.9,29.51,South,171,7.0,16.0,90,0.00,,,0.30,Wunderground v.1.15,2013-02-10 18:08:00,
2013-02-10 12:14:00,54.1,51.2,29.51,SW,218,8.0,11.0,90,0.00,,,0.30,Wunderground v.1.15,2013-02-10 18:14:00,
2013-02-10 12:20:00,54.4,51.5,29.51,SSE,162,9.0,9.0,90,0.00,,,0.30,Wunderground v.1.15,2013-02-10 18:20:00,
2013-02-10 12:26:00,54.9,52.0,29.50,South,187,7.0,9.0,90,0.00,,,0.30,Wunderground v.1.15,2013-02-10 18:26:00,
2013-02-10 12:32:00,55.7,52.8,29.49,SSE,159,7.0,15.0,90,0.00,,,0.30,Wunderground v.1.15,2013-02-10 18:32:00,
2013-02-10 12:38:00,56.1,52.9,29.49,SSE,168,9.0,15.0,89,0.00,,,0.30,Wunderground v.1.15,2013-02-10 18:38:00,
2013-02-10 12:44:00,56.5,53.0,29.49,SSE,148,9.0,11.0,88,0.00,,,0.30,Wunderground v.1.15,2013-02-10 18:44:00,
2013-02-10 12:50:00,56.8,53.3,29.48,South,182,10.0,10.0,88,0.00,,,0.30,Wunderground v.1.15,2013-02-10 18:50:00,
2013-02-10 12:56:00,57.3,53.8,29.48,South,184,8.0,23.0,88,0.00,,,0.30,Wunderground v.1.15,2013-02-10 18:56:00,
2013-02-10 13:02:00,57.6,53.8,29.47,SSW,192,9.0,23.0,87,0.00,,,0.30,Wunderground v.1.15,2013-02-10 19:02:00,
2013-02-10 13:08:00,57.9,53.7,29.47,South,173,10.0,24.0,86,0.00,,,0.30,Wunderground v.1.15,2013-02-10 19:08:00,
2013-02-10 13:14:00,58.1,53.3,29.46,SSE,167,12.0,23.0,84,0.00,,,0.30,Wunderground v.1.15,2013-02-10 19:14:00,
2013-02-10 13:20:00,58.4,53.3,29.46,SSW,192,12.0,23.0,83,0.00,,,0.30,Wunderground v.1.15,2013-02-10 19:20:00,
2013-02-10 13:26:00,58.6,53.5,29.46,SSW,195,11.0,23.0,83,0.00,,,0.30,Wunderground v.1.15,2013-02-10 19:26:00,
2013-02-10 13:32:00,58.7,53.2,29.47,SW,215,10.0,23.0,82,0.00,,,0.30,Wunderground v.1.15,2013-02-10 19:32:00,
2013-02-10 13:38:00,59.0,53.2,29.47,ESE,113,9.0,23.0,81,0.00,,,0.30,Wunderground v.1.15,2013-02-10 19:38:00,
2013-02-10 13:44:00,59.1,52.9,29.46,South,173,10.0,23.0,80,0.00,,,0.30,Wunderground v.1.15,2013-02-10 19:44:00,
2013-02-10 13:50:00,59.3,52.8,29.45,SW,222,10.0,23.0,79,0.00,,,0.30,Wunderground v.1.15,2013-02-10 19:50:00,
2013-02-10 13:56:00,59.4,52.5,29.45,SSW,203,9.0,23.0,78,0.00,,,0.30,Wunderground v.1.15,2013-02-10 19:56:00,
2013-02-10 14:02:00,59.8,52.6,29.45,SSW,205,9.0,23.0,77,0.00,,,0.30,Wunderground v.1.15,2013-02-10 20:02:00,
2013-02-10 14:08:00,59.9,52.0,29.45,South,188,10.0,23.0,75,0.00,,,0.30,Wunderground v.1.15,2013-02-10 20:08:00,
2013-02-10 14:14:00,60.0,52.1,29.45,SSW,213,9.0,23.0,75,0.00,,,0.30,Wunderground v.1.15,2013-02-10 20:14:00,
2013-02-10 14:20:00,59.8,50.8,29.44,South,183,10.0,10.0,72,0.00,,,0.30,Wunderground v.1.15,2013-02-10 20:20:00,
2013-02-10 14:26:00,59.8,50.8,29.44,SSW,192,10.0,23.0,72,0.00,,,0.30,Wunderground v.1.15,2013-02-10 20:26:00,
2013-02-10 14:32:00,60.1,51.0,29.45,SSW,199,9.0,23.0,72,0.00,,,0.30,Wunderground v.1.15,2013-02-10 20:32:00,
2013-02-10 14:38:00,60.3,50.5,29.45,WSW,240,9.0,24.0,70,0.00,,,0.30,Wunderground v.1.15,2013-02-10 20:38:00,
2013-02-10 14:44:00,60.0,49.8,29.45,SSW,205,11.0,23.0,69,0.00,,,0.30,Wunderground v.1.15,2013-02-10 20:44:00,
2013-02-10 14:50:00,59.8,48.8,29.45,SW,226,11.0,11.0,67,0.00,,,0.30,Wunderground v.1.15,2013-02-10 20:50:00,
2013-02-10 14:56:00,59.8,48.4,29.46,SSW,213,10.0,23.0,66,0.00,,,0.30,Wunderground v.1.15,2013-02-10 20:56:00,
2013-02-10 15:02:00,59.7,47.5,29.45,SW,223,11.0,17.0,64,0.00,,,0.30,Wunderground v.1.15,2013-02-10 21:02:00,
2013-02-10 15:08:00,59.7,48.3,29.45,SSW,213,10.0,17.0,66,0.00,,,0.30,Wunderground v.1.15,2013-02-10 21:08:00,
2013-02-10 15:14:00,59.8,48.4,29.45,SSW,210,8.0,15.0,66,0.00,,,0.30,Wunderground v.1.15,2013-02-10 21:14:00,
2013-02-10 15:20:00,59.8,47.6,29.45,SW,233,9.0,12.0,64,0.00,,,0.30,Wunderground v.1.15,2013-02-10 21:20:00,
2013-02-10 15:26:00,59.7,47.5,29.45,SW,221,10.0,16.0,64,0.00,,,0.30,Wunderground v.1.15,2013-02-10 21:26:00,
2013-02-10 15:32:00,59.6,47.0,29.46,SSW,196,9.0,9.0,63,0.00,,,0.30,Wunderground v.1.15,2013-02-10 21:32:00,
2013-02-10 15:38:00,59.3,45.4,29.46,SSW,195,12.0,15.0,60,0.00,,,0.30,Wunderground v.1.15,2013-02-10 21:38:00,
2013-02-10 15:44:00,59.1,45.2,29.46,South,182,12.0,12.0,60,0.00,,,0.30,Wunderground v.1.15,2013-02-10 21:44:00,
2013-02-10 15:50:00,59.0,45.6,29.46,WSW,257,9.0,9.0,61,0.00,,,0.30,Wunderground v.1.15,2013-02-10 21:50:00,
2013-02-10 15:56:00,58.8,45.4,29.48,West,268,8.0,15.0,61,0.00,,,0.30,Wunderground v.1.15,2013-02-10 21:56:00,
2013-02-10 16:02:00,58.6,45.2,29.48,WSW,240,9.0,22.0,61,0.00,,,0.30,Wunderground v.1.15,2013-02-10 22:02:00,
2013-02-10 16:08:00,58.2,44.4,29.49,WSW,237,9.0,22.0,60,0.00,,,0.30,Wunderground v.1.15,2013-02-10 22:08:00,
2013-02-10 16:14:00,57.6,43.8,29.50,SW,228,10.0,22.0,60,0.00,,,0.30,Wunderground v.1.15,2013-02-10 22:14:00,
2013-02-10 16:20:00,57.0,43.2,29.50,WSW,240,10.0,10.0,60,0.00,,,0.30,Wunderground v.1.15,2013-02-10 22:20:00,
2013-02-10 16:26:00,56.6,42.9,29.51,SW,217,11.0,22.0,60,0.00,,,0.30,Wunderground v.1.15,2013-02-10 22:26:00,
2013-02-10 16:32:00,56.1,42.4,29.51,WSW,252,11.0,22.0,60,0.00,,,0.30,Wunderground v.1.15,2013-02-10 22:32:00,
2013-02-10 16:38:00,55.7,41.6,29.51,South,186,10.0,22.0,59,0.00,,,0.30,Wunderground v.1.15,2013-02-10 22:38:00,
2013-02-10 16:44:00,55.3,41.2,29.52,SW,216,12.0,22.0,59,0.00,,,0.30,Wunderground v.1.15,2013-02-10 22:44:00,
2013-02-10 16:50:00,55.0,40.9,29.52,SW,230,10.0,22.0,59,0.00,,,0.30,Wunderground v.1.15,2013-02-10 22:50:00,
2013-02-10 16:56:00,54.7,41.1,29.53,South,184,8.0,22.0,60,0.00,,,0.30,Wunderground v.1.15,2013-02-10 22:56:00,
2013-02-10 17:02:00,54.3,40.7,29.54,SW,223,8.0,22.0,60,0.00,,,0.30,Wunderground v.1.15,2013-02-10 23:02:00,
2013-02-10 17:08:00,54.0,40.4,29.54,SW,234,8.0,22.0,60,0.00,,,0.30,Wunderground v.1.15,2013-02-10 23:08:00,
2013-02-10 17:14:00,53.6,40.0,29.55,SW,229,7.0,22.0,60,0.00,,,0.30,Wunderground v.1.15,2013-02-10 23:14:00,
2013-02-10 17:20:00,53.4,39.9,29.55,SW,223,8.0,22.0,60,0.00,,,0.30,Wunderground v.1.15,2013-02-10 23:20:00,
2013-02-10 17:26:00,53.1,39.1,29.56,WSW,252,9.0,22.0,59,0.00,,,0.30,Wunderground v.1.15,2013-02-10 23:26:00,
2013-02-10 17:32:00,52.9,39.4,29.56,SSW,212,7.0,22.0,60,0.00,,,0.30,Wunderground v.1.15,2013-02-10 23:32:00,
2013-02-10 17:38:00,52.6,39.1,29.57,SW,235,7.0,22.0,60,0.00,,,0.30,Wunderground v.1.15,2013-02-10 23:38:00,
2013-02-10 17:44:00,52.3,38.8,29.57,SW,230,6.0,22.0,60,0.00,,,0.30,Wunderground v.1.15,2013-02-10 23:44:00,
2013-02-10 17:50:00,52.0,38.5,29.57,SW,217,7.0,22.0,60,0.00,,,0.30,Wunderground v.1.15,2013-02-10 23:50:00,
2013-02-10 17:56:00,51.8,38.3,29.58,SW,217,8.0,22.0,60,0.00,,,0.30,Wunderground v.1.15,2013-02-10 23:56:00,
2013-02-10 18:02:00,51.6,37.7,29.58,SW,224,8.0,15.0,59,0.00,,,0.30,Wunderground v.1.15,2013-02-11 00:02:00,
2013-02-10 18:08:00,51.4,38.0,29.59,SW,231,8.0,15.0,60,0.00,,,0.30,Wunderground v.1.15,2013-02-11 00:08:00,
2013-02-10 18:14:00,51.1,37.7,29.59,SW,217,7.0,13.0,60,0.00,,,0.30,Wunderground v.1.15,2013-02-11 00:14:00,
2013-02-10 18:20:00,50.8,37.0,29.59,WSW,252,8.0,10.0,59,0.00,,,0.30,Wunderground v.1.15,2013-02-11 00:20:00,
2013-02-10 18:26:00,50.7,36.9,29.60,SW,222,9.0,14.0,59,0.00,,,0.30,Wunderground v.1.15,2013-02-11 00:26:00,
2013-02-10 18:32:00,50.6,36.8,29.60,SW,231,9.0,14.0,59,0.00,,,0.30,Wunderground v.1.15,2013-02-11 00:32:00,
2013-02-10 18:38:00,50.5,36.7,29.61,SW,225,8.0,14.0,59,0.00,,,0.30,Wunderground v.1.15,2013-02-11 00:38:00,
2013-02-10 18:44:00,50.4,36.6,29.61,SW,230,9.0,15.0,59,0.00,,,0.30,Wunderground v.1.15,2013-02-11 00:44:00,
2013-02-10 18:50:00,50.1,36.3,29.61,SW,222,8.0,8.0,59,0.00,,,0.30,Wunderground v.1.15,2013-02-11 00:50:00,
2013-02-10 18:56:00,49.8,36.0,29.61,SW,225,8.0,10.0,59,0.00,,,0.30,Wunderground v.1.15,2013-02-11 00:56:00,
2013-02-10 19:02:00,49.6,35.8,29.62,SW,221,9.0,18.0,59,0.00,,,0.30,Wunderground v.1.15,2013-02-11 01:02:00,
2013-02-10 19:08:00,49.5,35.8,29.62,SW,225,9.0,18.0,59,0.00,,,0.30,Wunderground v.1.15,2013-02-11 01:08:00,
2013-02-10 19:14:00,49.2,35.5,29.63,SW,234,8.0,18.0,59,0.00,,,0.30,Wunderground v.1.15,2013-02-11 01:14:00,
2013-02-10 19:20:00,49.0,35.3,29.63,West,271,8.0,18.0,59,0.00,,,0.30,Wunderground v.1.15,2013-02-11 01:20:00,
2013-02-10 19:26:00,48.8,35.1,29.63,SW,232,8.0,18.0,59,0.00,,,0.30,Wunderground v.1.15,2013-02-11 01:26:00,
2013-02-10 19:32:00,48.5,34.8,29.63,SW,234,7.0,18.0,59,0.00,,,0.30,Wunderground v.1.15,2013-02-11 01:32:00,
2013-02-10 19:38:00,48.3,34.6,29.64,SW,219,7.0,18.0,59,0.00,,,0.30,Wunderground v.1.15,2013-02-11 01:38:00,
2013-02-10 19:44:00,48.2,35.0,29.64,WSW,254,7.0,18.0,60,0.00,,,0.30,Wunderground v.1.15,2013-02-11 01:44:00,
2013-02-10 19:50:00,48.1,34.9,29.64,WSW,241,8.0,8.0,60,0.00,,,0.30,Wunderground v.1.15,2013-02-11 01:50:00,
2013-02-10 19:56:00,47.9,34.7,29.64,WSW,242,9.0,18.0,60,0.00,,,0.30,Wunderground v.1.15,2013-02-11 01:56:00,
2013-02-10 20:02:00,47.6,34.4,29.65,SW,235,8.0,18.0,60,0.00,,,0.30,Wunderground v.1.15,2013-02-11 02:02:00,
2013-02-10 20:08:00,47.4,34.2,29.65,SW,226,8.0,18.0,60,0.00,,,0.30,Wunderground v.1.15,2013-02-11 02:08:00,
2013-02-10 20:14:00,47.1,33.9,29.66,WSW,244,10.0,18.0,60,0.00,,,0.30,Wunderground v.1.15,2013-02-11 02:14:00,
2013-02-10 20:20:00,46.9,33.7,29.66,SW,225,9.0,9.0,60,0.00,,,0.30,Wunderground v.1.15,2013-02-11 02:20:00,
2013-02-10 20:26:00,46.5,33.4,29.67,WSW,253,8.0,18.0,60,0.00,,,0.30,Wunderground v.1.15,2013-02-11 02:26:00,
2013-02-10 20:32:00,45.9,32.8,29.67,WSW,246,9.0,18.0,60,0.00,,,0.30,Wunderground v.1.15,2013-02-11 02:32:00,
2013-02-10 20:38:00,45.2,32.1,29.68,SW,223,10.0,18.0,60,0.00,,,0.30,Wunderground v.1.15,2013-02-11 02:38:00,
2013-02-10 20:44:00,44.8,31.8,29.68,SW,231,11.0,18.0,60,0.00,,,0.30,Wunderground v.1.15,2013-02-11 02:44:00,
2013-02-10 20:50:00,44.3,31.3,29.68,SSW,199,9.0,18.0,60,0.00,,,0.30,Wunderground v.1.15,2013-02-11 02:50:00,
2013-02-10 20:56:00,43.9,30.9,29.69,WSW,247,11.0,18.0,60,0.00,,,0.30,Wunderground v.1.15,2013-02-11 02:56:00,
2013-02-10 21:02:00,43.6,30.6,29.69,SW,216,12.0,18.0,60,0.00,,,0.30,Wunderground v.1.15,2013-02-11 03:02:00,
2013-02-10 21:08:00,43.3,30.3,29.69,SW,236,10.0,18.0,60,0.00,,,0.30,Wunderground v.1.15,2013-02-11 03:08:00,
2013-02-10 21:14:00,43.0,30.1,29.69,SW,236,10.0,14.0,60,0.00,,,0.30,Wunderground v.1.15,2013-02-11 03:14:00,
2013-02-10 21:20:00,42.8,29.9,29.70,WSW,243,9.0,13.0,60,0.00,,,0.30,Wunderground v.1.15,2013-02-11 03:20:00,
2013-02-10 21:26:00,42.6,29.7,29.70,SW,236,9.0,13.0,60,0.00,,,0.30,Wunderground v.1.15,2013-02-11 03:26:00,
2013-02-10 21:32:00,42.4,29.5,29.70,WSW,240,8.0,10.0,60,0.00,,,0.30,Wunderground v.1.15,2013-02-11 03:32:00,
2013-02-10 21:38:00,42.5,30.0,29.70,SW,234,8.0,10.0,61,0.00,,,0.30,Wunderground v.1.15,2013-02-11 03:38:00,
2013-02-10 21:44:00,42.5,30.0,29.70,WSW,252,9.0,11.0,61,0.00,,,0.30,Wunderground v.1.15,2013-02-11 03:44:00,
2013-02-10 21:50:00,42.5,30.0,29.70,SW,221,8.0,10.0,61,0.00,,,0.30,Wunderground v.1.15,2013-02-11 03:50:00,
2013-02-10 21:56:00,42.5,30.0,29.71,WSW,237,10.0,30.0,61,0.00,,,0.30,Wunderground v.1.15,2013-02-11 03:56:00,
2013-02-10 22:02:00,42.5,29.6,29.71,SW,233,12.0,30.0,60,0.00,,,0.30,Wunderground v.1.15,2013-02-11 04:02:00,
2013-02-10 22:08:00,42.4,29.5,29.72,SW,215,10.0,30.0,60,0.00,,,0.30,Wunderground v.1.15,2013-02-11 04:08:00,
2013-02-10 22:14:00,42.3,29.8,29.72,SSW,208,9.0,30.0,61,0.00,,,0.30,Wunderground v.1.15,2013-02-11 04:14:00,
2013-02-10 22:20:00,42.2,29.7,29.72,SW,223,10.0,30.0,61,0.00,,,0.30,Wunderground v.1.15,2013-02-11 04:20:00,
2013-02-10 22:26:00,42.1,29.2,29.72,West,259,10.0,30.0,60,0.00,,,0.30,Wunderground v.1.15,2013-02-11 04:26:00,
2013-02-10 22:32:00,42.0,29.5,29.73,SW,229,11.0,30.0,61,0.00,,,0.30,Wunderground v.1.15,2013-02-11 04:32:00,
2013-02-10 22:38:00,41.8,29.3,29.73,WSW,244,10.0,30.0,61,0.00,,,0.30,Wunderground v.1.15,2013-02-11 04:38:00,
2013-02-10 22:44:00,41.6,29.1,29.74,WSW,245,9.0,30.0,61,0.00,,,0.30,Wunderground v.1.15,2013-02-11 04:44:00,
2013-02-10 22:50:00,41.5,29.0,29.74,SW,225,9.0,30.0,61,0.00,,,0.30,Wunderground v.1.15,2013-02-11 04:50:00,
2013-02-10 22:56:00,41.3,28.9,29.74,SW,230,10.0,30.0,61,0.00,,,0.30,Wunderground v.1.15,2013-02-11 04:56:00,
2013-02-10 23:00:00,41.1,28.7,29.74,SW,232,11.0,30.0,61,0.00,,,0.30,Wunderground v.1.15,2013-02-11 05:00:00,
2013-02-10 23:02:00,41.1,28.7,29.74,WSW,239,11.0,30.0,61,0.00,,,0.30,Wunderground v.1.15,2013-02-11 05:02:00,
2013-02-10 23:08:00,41.0,29.7,29.75,WSW,252,11.0,30.0,64,0.00,,,0.30,Wunderground v.1.15,2013-02-11 05:08:00,
2013-02-10 23:14:00,40.9,28.5,29.76,WSW,245,10.0,30.0,61,0.00,,,0.30,Wunderground v.1.15,2013-02-11 05:14:00,
2013-02-10 23:20:00,40.5,28.1,29.77,West,265,10.0,30.0,61,0.00,,,0.30,Wunderground v.1.15,2013-02-11 05:20:00,
2013-02-10 23:24:00,40.1,27.7,29.77,SW,234,12.0,30.0,61,0.00,,,0.30,Wunderground v.1.15,2013-02-11 05:24:00,
2013-02-10 23:30:00,39.5,26.8,29.77,West,264,11.0,11.0,60,0.00,,,0.30,Wunderground v.1.15,2013-02-11 05:30:00,
2013-02-10 23:36:00,39.1,26.4,29.78,WSW,250,11.0,30.0,60,0.00,,,0.30,Wunderground v.1.15,2013-02-11 05:36:00,
2013-02-10 23:42:00,38.9,26.2,29.78,SW,226,9.0,30.0,60,0.00,,,0.30,Wunderground v.1.15,2013-02-11 05:42:00,
2013-02-10 23:48:00,38.7,26.0,29.78,WSW,242,9.0,30.0,60,0.00,,,0.30,Wunderground v.1.15,2013-02-11 05:48:00,
2013-02-10 23:54:00,38.5,25.8,29.79,West,261,10.0,30.0,60,0.00,,,0.30,Wunderground v.1.15,2013-02-11 05:54:00,